Time;durP1;ratioP1;P1;durP2;ratioP2;P2;SDS_P1;SDS_P2;PMS_P1;PMS_P2;Temp;Humidity;BMP_temperature;BMP_pressure;BME280_temperature;BME280_humidity;BME280_pressure;Samples;Min_cycle;Max_cycle;Signal;HPM_P1;HPM_P2
2022/10/18 00:00:04;;;;;;;26.88;16.77;;;;;;;;;;5071482;28;20041;-66
2022/10/18 00:02:30;;;;;;;28.60;17.05;;;;;;;;;;5071891;28;20040;-66
2022/10/18 00:04:56;;;;;;;29.50;17.63;;;;;;;;;;5071717;28;20037;-66
2022/10/18 00:07:22;;;;;;;26.15;17.50;;;;;;;;;;5070907;28;20052;-66
2022/10/18 00:09:48;;;;;;;25.45;15.80;;;;;;;;;;5071506;28;20534;-66
2022/10/18 00:12:14;;;;;;;30.63;19.02;;;;;;;;;;5071313;28;20135;-66
2022/10/18 00:14:40;;;;;;;35.72;19.92;;;;;;;;;;5071304;28;20036;-66
2022/10/18 00:17:06;;;;;;;34.13;18.73;;;;;;;;;;5071409;28;20044;-66
2022/10/18 00:19:32;;;;;;;36.75;20.77;;;;;;;;;;5071384;28;20036;-66
2022/10/18 00:21:58;;;;;;;34.25;19.48;;;;;;;;;;5071106;28;20048;-66
2022/10/18 00:24:24;;;;;;;30.60;18.85;;;;;;;;;;5071262;28;20040;-66
2022/10/18 00:26:50;;;;;;;30.65;17.42;;;;;;;;;;5071238;28;20043;-66
2022/10/18 00:29:16;;;;;;;30.23;17.27;;;;;;;;;;5070387;28;20095;-66
2022/10/18 00:31:42;;;;;;;25.52;17.10;;;;;;;;;;5071213;28;20837;-66
2022/10/18 00:34:12;;;;;;;33.63;18.58;;;;;;;;;;5071034;28;20076;-65
2022/10/18 00:36:38;;;;;;;32.58;19.40;;;;;;;;;;5071054;28;20080;-65
2022/10/18 00:39:05;;;;;;;32.80;19.00;;;;;;;;;;5071020;28;20044;-67
2022/10/18 00:41:32;;;;;;;28.48;17.98;;;;;;;;;;5071109;28;20071;-66
2022/10/18 00:44:06;;;;;;;26.08;16.95;;;;;;;;;;5070886;28;20036;-66
2022/10/18 00:46:34;;;;;;;28.95;17.58;;;;;;;;;;5070740;28;20043;-66
2022/10/18 00:49:02;;;;;;;28.23;17.67;;;;;;;;;;5070973;28;20052;-66
2022/10/18 00:51:30;;;;;;;27.15;16.52;;;;;;;;;;5070624;28;20059;-66
2022/10/18 00:53:56;;;;;;;29.83;17.42;;;;;;;;;;5070732;28;20087;-66
2022/10/18 00:56:22;;;;;;;29.08;17.52;;;;;;;;;;5070848;28;20414;-66
2022/10/18 00:58:49;;;;;;;24.75;16.10;;;;;;;;;;5070489;28;20036;-66
2022/10/18 01:01:15;;;;;;;24.85;15.93;;;;;;;;;;5069200;28;20460;-66
2022/10/18 01:03:41;;;;;;;27.08;16.95;;;;;;;;;;5070830;28;20036;-66
2022/10/18 01:06:07;;;;;;;32.63;16.77;;;;;;;;;;5070715;28;20119;-66
2022/10/18 01:08:36;;;;;;;26.48;16.20;;;;;;;;;;5070492;28;20435;-66
2022/10/18 01:11:10;;;;;;;28.90;16.92;;;;;;;;;;5070718;28;20518;-66
2022/10/18 01:13:40;;;;;;;26.42;16.83;;;;;;;;;;5070688;28;20132;-66
2022/10/18 01:16:19;;;;;;;26.08;16.20;;;;;;;;;;5070612;28;20039;-66
2022/10/18 01:18:54;;;;;;;27.08;16.15;;;;;;;;;;5070672;28;20048;-66
2022/10/18 01:21:32;;;;;;;30.30;15.85;;;;;;;;;;5070037;28;20050;-66
2022/10/18 01:24:13;;;;;;;22.63;15.30;;;;;;;;;;5070777;28;20032;-66
2022/10/18 01:26:54;;;;;;;22.52;14.77;;;;;;;;;;5070545;28;20398;-66
2022/10/18 01:29:20;;;;;;;24.77;15.32;;;;;;;;;;5070164;28;20041;-66
2022/10/18 01:31:47;;;;;;;27.85;15.50;;;;;;;;;;5070605;28;20097;-66
2022/10/18 01:34:15;;;;;;;24.88;12.02;;;;;;;;;;5070689;28;20502;-66
2022/10/18 01:36:43;;;;;;;20.38;13.15;;;;;;;;;;5070209;28;20646;-66
2022/10/18 01:39:12;;;;;;;17.15;12.88;;;;;;;;;;5071065;28;20113;-66
2022/10/18 01:41:39;;;;;;;21.65;13.27;;;;;;;;;;5074518;28;20351;-66
2022/10/18 01:44:07;;;;;;;19.42;13.00;;;;;;;;;;5074279;28;20040;-66
2022/10/18 01:46:33;;;;;;;24.13;13.20;;;;;;;;;;5074485;28;20467;-66
2022/10/18 01:48:59;;;;;;;19.15;11.82;;;;;;;;;;5074269;28;20150;-66
2022/10/18 01:51:26;;;;;;;20.60;13.10;;;;;;;;;;5074005;28;20052;-66
2022/10/18 01:53:52;;;;;;;21.15;14.00;;;;;;;;;;5074238;28;20123;-66
2022/10/18 01:56:34;;;;;;;20.10;13.77;;;;;;;;;;5074288;28;20063;-66
2022/10/18 01:59:03;;;;;;;21.40;14.15;;;;;;;;;;5073763;28;20825;-66
2022/10/18 02:01:48;;;;;;;20.85;13.45;;;;;;;;;;5073823;28;20072;-66
2022/10/18 02:04:40;;;;;;;22.67;13.65;;;;;;;;;;5074071;28;20040;-66
2022/10/18 02:07:06;;;;;;;;;;;;;;;;;;5074022;28;20036;-66
2022/10/18 02:09:42;;;;;;;25.48;14.60;;;;;;;;;;5073914;28;20319;-66
2022/10/18 02:12:10;;;;;;;22.42;14.57;;;;;;;;;;5073599;28;20515;-66
2022/10/18 02:14:36;;;;;;;23.67;15.25;;;;;;;;;;5073695;28;20040;-66
2022/10/18 02:17:05;;;;;;;18.00;12.50;;;;;;;;;;5073821;28;20040;-66
2022/10/18 02:19:34;;;;;;;20.60;13.63;;;;;;;;;;5073750;28;20044;-66
2022/10/18 02:22:00;;;;;;;22.23;13.88;;;;;;;;;;5073503;28;20037;-66
2022/10/18 02:24:33;;;;;;;18.48;11.45;;;;;;;;;;5073817;28;20116;-66
2022/10/18 02:26:59;;;;;;;18.85;13.75;;;;;;;;;;5073443;28;20115;-66
2022/10/18 02:29:25;;;;;;;23.83;15.07;;;;;;;;;;5072840;28;20045;-66
2022/10/18 02:31:55;;;;;;;21.70;14.10;;;;;;;;;;5073591;28;20045;-66
2022/10/18 02:34:22;;;;;;;21.67;12.27;;;;;;;;;;5073690;28;20052;-66
2022/10/18 02:36:58;;;;;;;27.20;12.38;;;;;;;;;;5073245;28;20041;-66
2022/10/18 02:39:27;;;;;;;19.92;12.40;;;;;;;;;;5073340;28;20037;-66
2022/10/18 02:41:53;;;;;;;16.20;12.18;;;;;;;;;;5073320;28;20127;-66
2022/10/18 02:44:19;;;;;;;30.20;13.82;;;;;;;;;;5073201;28;20051;-66
2022/10/18 02:46:46;;;;;;;22.33;13.38;;;;;;;;;;5073432;28;20044;-66
2022/10/18 02:49:12;;;;;;;30.02;14.65;;;;;;;;;;5072937;28;20127;-66
2022/10/18 02:51:38;;;;;;;18.20;13.35;;;;;;;;;;5072349;28;20370;-66
2022/10/18 02:54:04;;;;;;;16.02;12.13;;;;;;;;;;5073100;28;20046;-65
2022/10/18 02:56:30;;;;;;;27.08;12.63;;;;;;;;;;5073185;28;20088;-65
2022/10/18 02:58:56;;;;;;;18.10;12.18;;;;;;;;;;5072708;28;20131;-65
2022/10/18 03:01:22;;;;;;;21.92;13.10;;;;;;;;;;5073037;28;20051;-65
2022/10/18 03:03:48;;;;;;;18.50;12.25;;;;;;;;;;5072889;28;20178;-65
2022/10/18 03:06:14;;;;;;;22.98;13.18;;;;;;;;;;5072614;28;20158;-65
2022/10/18 03:08:40;;;;;;;14.43;11.88;;;;;;;;;;5072903;28;20528;-65
2022/10/18 03:11:06;;;;;;;16.83;10.98;;;;;;;;;;5072843;28;20131;-66
2022/10/18 03:13:32;;;;;;;18.67;10.57;;;;;;;;;;5072383;28;20410;-66
2022/10/18 03:15:59;;;;;;;21.08;12.00;;;;;;;;;;5072792;28;20041;-66
2022/10/18 03:18:25;;;;;;;15.80;10.82;;;;;;;;;;5072721;28;20126;-66
2022/10/18 03:20:51;;;;;;;17.00;11.15;;;;;;;;;;5072448;28;20052;-66
2022/10/18 03:23:17;;;;;;;17.23;10.57;;;;;;;;;;5072736;28;20042;-66
2022/10/18 03:25:44;;;;;;;15.30;10.05;;;;;;;;;;5072384;28;20029;-66
2022/10/18 03:28:10;;;;;;;20.92;11.98;;;;;;;;;;5072062;28;20052;-66
2022/10/18 03:30:37;;;;;;;17.25;10.63;;;;;;;;;;5072482;28;20096;-67
2022/10/18 03:33:04;;;;;;;12.32;9.48;;;;;;;;;;5072460;28;20388;-66
2022/10/18 03:35:30;;;;;;;15.90;10.25;;;;;;;;;;5072044;28;20441;-67
2022/10/18 03:37:56;;;;;;;20.20;10.85;;;;;;;;;;5070812;28;20076;-67
2022/10/18 03:40:22;;;;;;;33.00;13.50;;;;;;;;;;5072202;28;20041;-67
2022/10/18 03:42:48;;;;;;;23.75;13.27;;;;;;;;;;5072035;28;20072;-67
2022/10/18 03:45:14;;;;;;;24.90;13.02;;;;;;;;;;5071877;28;20043;-67
2022/10/18 03:47:40;;;;;;;41.85;14.82;;;;;;;;;;5072132;28;20044;-67
2022/10/18 03:50:07;;;;;;;21.90;13.80;;;;;;;;;;5071540;28;20040;-67
2022/10/18 03:52:33;;;;;;;24.92;13.50;;;;;;;;;;5072237;28;20148;-67
2022/10/18 03:54:59;;;;;;;26.75;12.93;;;;;;;;;;5071666;28;20041;-67
2022/10/18 03:57:25;;;;;;;23.50;12.35;;;;;;;;;;5071486;28;20036;-67
2022/10/18 03:59:51;;;;;;;67.32;15.55;;;;;;;;;;5071445;28;20202;-67
2022/10/18 04:02:17;;;;;;;151.68;19.00;;;;;;;;;;5071525;28;20032;-67
2022/10/18 04:04:43;;;;;;;105.53;17.13;;;;;;;;;;5070872;28;20174;-67
2022/10/18 04:07:09;;;;;;;75.38;16.25;;;;;;;;;;5071614;28;20052;-67
2022/10/18 04:09:35;;;;;;;41.28;15.50;;;;;;;;;;5071603;28;20040;-65
2022/10/18 04:12:01;;;;;;;60.78;15.90;;;;;;;;;;5070932;28;20407;-65
2022/10/18 04:14:27;;;;;;;109.63;17.05;;;;;;;;;;5071669;28;20063;-65
2022/10/18 04:16:53;;;;;;;98.38;18.90;;;;;;;;;;5071564;28;20040;-65
2022/10/18 04:19:19;;;;;;;63.05;16.65;;;;;;;;;;5071152;28;20119;-65
2022/10/18 04:21:45;;;;;;;52.17;15.50;;;;;;;;;;5069986;28;20044;-65
2022/10/18 04:24:11;;;;;;;55.78;16.77;;;;;;;;;;5071364;28;20036;-65
2022/10/18 04:26:37;;;;;;;78.75;18.30;;;;;;;;;;5070761;28;20115;-65
2022/10/18 04:29:03;;;;;;;68.70;17.48;;;;;;;;;;5071170;28;20048;-65
2022/10/18 04:31:30;;;;;;;203.77;24.75;;;;;;;;;;5071425;28;20051;-65
2022/10/18 04:33:56;;;;;;;55.10;17.08;;;;;;;;;;5070940;28;20459;-65
2022/10/18 04:36:22;;;;;;;80.90;18.75;;;;;;;;;;5071320;28;20105;-65
2022/10/18 04:38:48;;;;;;;215.40;24.25;;;;;;;;;;5071104;28;20045;-65
2022/10/18 04:41:14;;;;;;;73.60;18.00;;;;;;;;;;5070788;28;20072;-65
2022/10/18 04:43:40;;;;;;;163.27;22.85;;;;;;;;;;5071139;28;20743;-65
2022/10/18 04:46:06;;;;;;;77.65;18.88;;;;;;;;;;5069548;28;20136;-65
2022/10/18 04:48:32;;;;;;;179.45;20.85;;;;;;;;;;5070754;28;20049;-65
2022/10/18 04:50:58;;;;;;;143.90;20.90;;;;;;;;;;5071177;28;20036;-65
2022/10/18 04:53:24;;;;;;;72.10;18.52;;;;;;;;;;5071109;28;20170;-65
2022/10/18 04:55:50;;;;;;;159.55;21.30;;;;;;;;;;5070343;28;20047;-65
2022/10/18 04:58:17;;;;;;;225.63;26.17;;;;;;;;;;5070674;28;20052;-65
2022/10/18 05:00:43;;;;;;;63.05;17.23;;;;;;;;;;5070865;28;20394;-65
2022/10/18 05:03:10;;;;;;;85.72;18.42;;;;;;;;;;5070675;28;20502;-65
2022/10/18 05:05:36;;;;;;;110.03;18.65;;;;;;;;;;5070843;28;20107;-65
2022/10/18 05:08:02;;;;;;;61.08;16.52;;;;;;;;;;5070998;28;20145;-65
2022/10/18 05:10:28;;;;;;;44.03;16.38;;;;;;;;;;5070250;28;20051;-65
2022/10/18 05:12:55;;;;;;;54.05;16.13;;;;;;;;;;5070336;28;20135;-65
2022/10/18 05:15:21;;;;;;;96.97;17.20;;;;;;;;;;5070658;28;20048;-65
2022/10/18 05:17:47;;;;;;;48.95;14.90;;;;;;;;;;5069286;28;20459;-65
2022/10/18 05:20:13;;;;;;;39.50;14.52;;;;;;;;;;5070274;28;20171;-66
2022/10/18 05:22:39;;;;;;;34.53;14.45;;;;;;;;;;5070830;28;20098;-65
2022/10/18 05:25:05;;;;;;;33.35;14.40;;;;;;;;;;5070413;28;20037;-64
2022/10/18 05:27:31;;;;;;;23.85;13.82;;;;;;;;;;5070130;28;20067;-64
2022/10/18 05:29:57;;;;;;;55.63;15.98;;;;;;;;;;5070571;28;20655;-65
2022/10/18 05:32:23;;;;;;;23.27;14.05;;;;;;;;;;5070656;28;20054;-65
2022/10/18 05:34:49;;;;;;;73.30;15.40;;;;;;;;;;5070106;28;20060;-65
2022/10/18 05:37:15;;;;;;;66.93;16.48;;;;;;;;;;5070554;28;20045;-65
2022/10/18 05:39:41;;;;;;;90.63;16.60;;;;;;;;;;5070449;28;20587;-65
2022/10/18 05:42:07;;;;;;;89.55;15.63;;;;;;;;;;5070316;28;20483;-65
2022/10/18 05:44:33;;;;;;;25.75;12.98;;;;;;;;;;5070278;28;20174;-65
2022/10/18 05:46:59;;;;;;;111.15;16.33;;;;;;;;;;5069273;28;20387;-68
2022/10/18 05:49:25;;;;;;;80.72;15.65;;;;;;;;;;5068131;28;20048;-67
2022/10/18 05:51:52;;;;;;;137.98;15.93;;;;;;;;;;5069650;28;20051;-65
2022/10/18 05:54:18;;;;;;;147.00;15.75;;;;;;;;;;5069878;28;20124;-65
2022/10/18 05:56:44;;;;;;;156.73;16.50;;;;;;;;;;5069460;28;20040;-66
2022/10/18 05:59:10;;;;;;;81.50;13.40;;;;;;;;;;5069816;28;20707;-65
2022/10/18 06:01:40;;;;;;;62.15;12.95;;;;;;;;;;5068868;28;20033;-65
2022/10/18 06:04:06;;;;;;;67.13;14.20;;;;;;;;;;5069587;28;20120;-65
2022/10/18 06:06:33;;;;;;;39.90;12.70;;;;;;;;;;5069781;28;20041;-66
2022/10/18 06:08:59;;;;;;;86.82;13.35;;;;;;;;;;5069976;28;20093;-68
2022/10/18 06:11:25;;;;;;;64.45;12.75;;;;;;;;;;5069091;28;20044;-68
2022/10/18 06:13:51;;;;;;;71.20;13.98;;;;;;;;;;5068744;28;20160;-68
2022/10/18 06:16:19;;;;;;;159.40;15.68;;;;;;;;;;5068957;28;20515;-67
2022/10/18 06:18:49;;;;;;;73.13;12.93;;;;;;;;;;5068016;28;20041;-69
2022/10/18 06:21:15;;;;;;;85.05;12.98;;;;;;;;;;5069383;28;20090;-71
2022/10/18 06:23:41;;;;;;;103.20;13.15;;;;;;;;;;5068280;28;20036;-67
2022/10/18 06:26:09;;;;;;;146.38;15.23;;;;;;;;;;5068477;28;20036;-68
2022/10/18 06:28:36;;;;;;;72.72;11.88;;;;;;;;;;5073005;28;20407;-68
2022/10/18 06:31:02;;;;;;;84.70;13.73;;;;;;;;;;5073156;28;20048;-68
2022/10/18 06:33:29;;;;;;;106.93;12.68;;;;;;;;;;5071051;28;20044;-68
2022/10/18 06:35:57;;;;;;;96.43;12.88;;;;;;;;;;5072380;28;20049;-67
2022/10/18 06:38:23;;;;;;;60.72;11.98;;;;;;;;;;5072732;28;20796;-70
2022/10/18 06:40:49;;;;;;;40.17;10.23;;;;;;;;;;5069604;28;20378;-71
2022/10/18 06:43:15;;;;;;;97.68;11.85;;;;;;;;;;5071192;28;20036;-72
2022/10/18 06:45:41;;;;;;;31.48;10.38;;;;;;;;;;5070955;28;20044;-74
2022/10/18 06:48:07;;;;;;;83.70;11.48;;;;;;;;;;5071025;28;20117;-74
2022/10/18 06:50:34;;;;;;;25.85;9.82;;;;;;;;;;5071230;28;20490;-69
2022/10/18 06:53:02;;;;;;;59.50;10.63;;;;;;;;;;5072666;28;20084;-68
2022/10/18 06:55:29;;;;;;;44.72;10.75;;;;;;;;;;5072257;28;20050;-68
2022/10/18 06:57:55;;;;;;;27.83;9.80;;;;;;;;;;5072535;28;20510;-68
2022/10/18 07:00:21;;;;;;;87.40;11.85;;;;;;;;;;5071003;28;20137;-69
2022/10/18 07:02:47;;;;;;;29.02;9.82;;;;;;;;;;5072415;28;20037;-69
2022/10/18 07:05:14;;;;;;;50.22;11.38;;;;;;;;;;5070697;28;20044;-69
2022/10/18 07:07:40;;;;;;;20.92;8.68;;;;;;;;;;5072280;28;20528;-66
2022/10/18 07:10:06;;;;;;;38.70;9.52;;;;;;;;;;5070375;28;20049;-66
2022/10/18 07:12:33;;;;;;;49.65;9.50;;;;;;;;;;5071054;28;20044;-68
2022/10/18 07:14:59;;;;;;;32.03;8.93;;;;;;;;;;5072404;28;20036;-68
2022/10/18 07:17:25;;;;;;;44.30;9.73;;;;;;;;;;5071461;28;20048;-69
2022/10/18 07:19:51;;;;;;;18.25;9.90;;;;;;;;;;5071916;28;20526;-70
2022/10/18 07:22:17;;;;;;;44.03;12.25;;;;;;;;;;5093257;28;20076;-71
2022/10/18 07:24:43;;;;;;;71.07;11.63;;;;;;;;;;5070334;28;20101;-71
2022/10/18 07:27:09;;;;;;;47.72;11.05;;;;;;;;;;5071805;28;20041;-70
2022/10/18 07:29:38;;;;;;;33.67;10.00;;;;;;;;;;5070423;28;20120;-66
2022/10/18 07:32:04;;;;;;;52.75;10.90;;;;;;;;;;5070569;28;20048;-67
2022/10/18 07:34:30;;;;;;;23.70;9.52;;;;;;;;;;5071077;28;20569;-68
2022/10/18 07:36:56;;;;;;;31.42;9.85;;;;;;;;;;5069018;28;20048;-69
2022/10/18 07:39:22;;;;;;;20.48;9.65;;;;;;;;;;5069894;28;20041;-68
2022/10/18 07:41:48;;;;;;;57.63;10.75;;;;;;;;;;5069041;28;20802;-67
2022/10/18 07:44:14;;;;;;;34.95;10.48;;;;;;;;;;5070658;28;20606;-67
2022/10/18 07:46:40;;;;;;;35.35;10.18;;;;;;;;;;5068770;28;20044;-68
2022/10/18 07:49:06;;;;;;;16.70;9.32;;;;;;;;;;5068941;28;20106;-68
2022/10/18 07:51:34;;;;;;;18.23;10.20;;;;;;;;;;5070326;28;20032;-68
2022/10/18 07:54:01;;;;;;;32.42;11.65;;;;;;;;;;5070157;28;20429;-70
2022/10/18 07:56:27;;;;;;;30.65;13.95;;;;;;;;;;5070079;28;20093;-68
2022/10/18 07:58:53;;;;;;;58.72;16.20;;;;;;;;;;5071145;28;20032;-69
2022/10/18 08:01:21;;;;;;;60.50;16.85;;;;;;;;;;5071004;28;20047;-70
2022/10/18 08:03:47;;;;;;;209.55;22.35;;;;;;;;;;5069828;28;20114;-68
2022/10/18 08:06:15;;;;;;;111.43;20.58;;;;;;;;;;5069625;28;20044;-68
2022/10/18 08:08:41;;;;;;;222.32;22.10;;;;;;;;;;5069207;28;20044;-72
2022/10/18 08:11:09;;;;;;;49.30;16.92;;;;;;;;;;5070002;28;20186;-69
2022/10/18 08:13:36;;;;;;;115.40;18.70;;;;;;;;;;5069537;28;20049;-71
2022/10/18 08:16:03;;;;;;;116.43;19.05;;;;;;;;;;5069459;28;20044;-72
2022/10/18 08:18:30;;;;;;;104.72;20.10;;;;;;;;;;5069357;28;20044;-71
2022/10/18 08:20:56;;;;;;;129.95;21.88;;;;;;;;;;5069702;28;20116;-71
2022/10/18 08:23:22;;;;;;;86.82;18.70;;;;;;;;;;5068755;28;20589;-72
2022/10/18 08:25:48;;;;;;;88.15;15.18;;;;;;;;;;5068962;28;20034;-72
2022/10/18 08:28:16;;;;;;;50.58;14.13;;;;;;;;;;5069308;28;20195;-69
2022/10/18 08:30:42;;;;;;;53.03;14.63;;;;;;;;;;5069657;28;20044;-68
2022/10/18 08:33:08;;;;;;;55.50;12.27;;;;;;;;;;5067372;28;20038;-67
2022/10/18 08:35:34;;;;;;;29.65;11.90;;;;;;;;;;5070315;28;20045;-69
2022/10/18 08:38:00;;;;;;;33.90;11.18;;;;;;;;;;5068686;28;20448;-70
2022/10/18 08:40:27;;;;;;;19.70;10.30;;;;;;;;;;5069092;28;20043;-70
2022/10/18 08:43:13;;;;;;;43.10;11.40;;;;;;;;;;5069498;28;20514;-69
2022/10/18 08:45:40;;;;;;;17.60;10.15;;;;;;;;;;5069976;28;20048;-70
2022/10/18 08:48:07;;;;;;;21.92;10.80;;;;;;;;;;5069996;28;20075;-63
2022/10/18 08:50:36;;;;;;;16.95;10.70;;;;;;;;;;5069999;28;20040;-63
2022/10/18 08:53:19;;;;;;;14.25;9.57;;;;;;;;;;5070028;28;20049;-69
2022/10/18 08:55:47;;;;;;;23.17;10.60;;;;;;;;;;5068948;28;20045;-71
2022/10/18 08:58:16;;;;;;;15.30;9.95;;;;;;;;;;5068844;28;20063;-69
2022/10/18 09:00:45;;;;;;;19.23;11.00;;;;;;;;;;5068544;28;20052;-69
2022/10/18 09:03:43;;;;;;;20.58;11.43;;;;;;;;;;5069101;28;20765;-66
2022/10/18 09:06:20;;;;;;;21.60;10.38;;;;;;;;;;5052177;28;20054;-69
2022/10/18 09:08:57;;;;;;;16.70;9.65;;;;;;;;;;5051395;28;20044;-66
2022/10/18 09:11:33;;;;;;;18.27;10.18;;;;;;;;;;5070109;28;20056;-67
2022/10/18 09:14:05;;;;;;;16.25;9.70;;;;;;;;;;5067280;28;20422;-67
2022/10/18 09:16:31;;;;;;;17.98;10.35;;;;;;;;;;5068680;28;20487;-66
2022/10/18 09:19:03;;;;;;;18.80;9.73;;;;;;;;;;5070489;28;20138;-66
2022/10/18 09:21:48;;;;;;;20.70;10.85;;;;;;;;;;5069565;28;20032;-66
2022/10/18 09:24:18;;;;;;;17.00;10.38;;;;;;;;;;5068875;28;20041;-67
2022/10/18 09:26:45;;;;;;;20.15;10.35;;;;;;;;;;5070011;28;20393;-67
2022/10/18 09:29:29;;;;;;;25.75;10.68;;;;;;;;;;5067890;28;20055;-68
2022/10/18 09:32:03;;;;;;;19.63;10.43;;;;;;;;;;5069888;28;20052;-68
2022/10/18 09:34:42;;;;;;;19.98;10.95;;;;;;;;;;5066279;28;20036;-68
2022/10/18 09:37:11;;;;;;;23.98;11.93;;;;;;;;;;5069346;28;20120;-67
2022/10/18 09:39:37;;;;;;;18.58;10.15;;;;;;;;;;5070017;28;20490;-65
2022/10/18 09:42:08;;;;;;;23.42;10.48;;;;;;;;;;5069931;28;20039;-65
2022/10/18 09:44:43;;;;;;;25.00;12.82;;;;;;;;;;5069624;28;20336;-64
2022/10/18 09:47:14;;;;;;;24.92;9.95;;;;;;;;;;5070163;28;20087;-64
2022/10/18 09:49:42;;;;;;;26.60;11.50;;;;;;;;;;5069598;28;20200;-68
2022/10/18 09:52:13;;;;;;;23.42;10.82;;;;;;;;;;5068153;28;20048;-67
2022/10/18 09:55:05;;;;;;;18.80;10.00;;;;;;;;;;5048734;28;20053;-69
2022/10/18 09:57:49;;;;;;;19.20;9.98;;;;;;;;;;5096910;28;20049;-67
2022/10/18 10:00:30;;;;;;;29.00;12.00;;;;;;;;;;5068073;28;20049;-67
2022/10/18 10:02:57;;;;;;;21.20;9.60;;;;;;;;;;5073415;28;20402;-67
2022/10/18 10:05:23;;;;;;;17.30;6.85;;;;;;;;;;5072451;28;20039;-65
2022/10/18 10:07:49;;;;;;;18.13;5.82;;;;;;;;;;5072811;28;20430;-68
2022/10/18 10:10:25;;;;;;;20.23;5.75;;;;;;;;;;5055450;28;20062;-68
2022/10/18 10:13:11;;;;;;;16.13;7.05;;;;;;;;;;5072954;28;20458;-67
2022/10/18 10:15:37;;;;;;;20.42;4.00;;;;;;;;;;5073252;28;20037;-66
2022/10/18 10:18:05;;;;;;;17.63;4.18;;;;;;;;;;5072772;28;20045;-68
2022/10/18 10:20:36;;;;;;;18.42;2.55;;;;;;;;;;5072812;28;20045;-67
2022/10/18 10:23:06;;;;;;;16.20;2.80;;;;;;;;;;5073057;28;20094;-71
2022/10/18 10:25:34;;;;;;;13.10;2.20;;;;;;;;;;5071679;28;20040;-67
2022/10/18 10:28:06;;;;;;;11.90;2.53;;;;;;;;;;5071630;28;20052;-67
2022/10/18 10:30:33;;;;;;;17.50;3.42;;;;;;;;;;5071453;28;20398;-66
2022/10/18 10:33:00;;;;;;;11.57;2.47;;;;;;;;;;5072458;28;20151;-67
2022/10/18 10:35:35;;;;;;;12.55;2.00;;;;;;;;;;5072641;28;20542;-67
2022/10/18 10:38:01;;;;;;;17.17;2.50;;;;;;;;;;5070622;28;20048;-67
2022/10/18 10:40:29;;;;;;;11.10;3.05;;;;;;;;;;5072755;28;20076;-67
2022/10/18 10:42:58;;;;;;;10.85;2.65;;;;;;;;;;5073008;28;20119;-67
2022/10/18 10:45:25;;;;;;;13.38;2.10;;;;;;;;;;5070744;28;20054;-67
2022/10/18 10:47:52;;;;;;;12.52;2.53;;;;;;;;;;5072964;28;20091;-67
2022/10/18 10:50:25;;;;;;;9.30;1.90;;;;;;;;;;5069628;28;20040;-67
2022/10/18 10:52:52;;;;;;;9.80;2.15;;;;;;;;;;5070919;28;20538;-67
2022/10/18 10:55:19;;;;;;;10.35;2.17;;;;;;;;;;5071427;28;20048;-66
2022/10/18 10:57:46;;;;;;;19.15;2.72;;;;;;;;;;5072414;28;20120;-66
2022/10/18 11:00:31;;;;;;;8.95;2.13;;;;;;;;;;5070723;28;20116;-66
2022/10/18 11:03:11;;;;;;;10.98;1.92;;;;;;;;;;5072952;28;20035;-66
2022/10/18 11:05:48;;;;;;;11.40;1.98;;;;;;;;;;5072026;28;20115;-66
2022/10/18 11:08:19;;;;;;;14.82;2.13;;;;;;;;;;5072535;28;20148;-66
2022/10/18 11:11:05;;;;;;;11.07;1.90;;;;;;;;;;5072066;28;20436;-66
2022/10/18 11:13:34;;;;;;;18.95;2.53;;;;;;;;;;5067007;28;20056;-67
2022/10/18 11:16:04;;;;;;;14.95;1.95;;;;;;;;;;5070928;28;20079;-65
2022/10/18 11:18:34;;;;;;;15.32;2.10;;;;;;;;;;5072210;28;20418;-66
2022/10/18 11:21:06;;;;;;;11.35;1.73;;;;;;;;;;5071643;28;20378;-66
2022/10/18 11:23:33;;;;;;;14.75;2.15;;;;;;;;;;5072172;28;20059;-66
2022/10/18 11:26:11;;;;;;;18.25;2.63;;;;;;;;;;5071388;28;20107;-69
2022/10/18 11:28:43;;;;;;;12.93;3.45;;;;;;;;;;5101899;28;20451;-68
2022/10/18 11:31:12;;;;;;;19.20;3.35;;;;;;;;;;5070745;28;20234;-68
2022/10/18 11:33:57;;;;;;;8.57;2.13;;;;;;;;;;5071784;28;20059;-68
2022/10/18 11:36:36;;;;;;;8.90;1.73;;;;;;;;;;5071572;28;20048;-65
2022/10/18 11:39:05;;;;;;;8.73;1.50;;;;;;;;;;5071689;28;20040;-65
2022/10/18 11:41:31;;;;;;;5.53;1.65;;;;;;;;;;5071465;28;20032;-64
2022/10/18 11:44:02;;;;;;;10.18;1.55;;;;;;;;;;5070994;28;20452;-64
2022/10/18 11:46:46;;;;;;;12.27;1.55;;;;;;;;;;5071065;28;20028;-66
2022/10/18 11:49:28;;;;;;;12.18;1.70;;;;;;;;;;5071106;28;20044;-67
2022/10/18 11:52:16;;;;;;;20.30;2.50;;;;;;;;;;5071254;28;20037;-65
2022/10/18 11:54:48;;;;;;;10.20;1.77;;;;;;;;;;5069282;28;20037;-66
2022/10/18 11:57:29;;;;;;;9.13;1.60;;;;;;;;;;5070970;28;20165;-67
2022/10/18 12:00:14;;;;;;;10.10;1.50;;;;;;;;;;5071485;28;20479;-66
2022/10/18 12:02:47;;;;;;;12.45;1.48;;;;;;;;;;5071633;28;20044;-66
2022/10/18 12:05:15;;;;;;;8.85;1.58;;;;;;;;;;5070504;28;20051;-66
2022/10/18 12:07:43;;;;;;;8.85;1.48;;;;;;;;;;5071445;28;20048;-66
2022/10/18 12:10:15;;;;;;;9.68;1.55;;;;;;;;;;5070892;28;20122;-66
2022/10/18 12:12:49;;;;;;;7.97;1.58;;;;;;;;;;5070460;28;20056;-68
2022/10/18 12:15:19;;;;;;;9.05;1.40;;;;;;;;;;5071200;28;20037;-67
2022/10/18 12:17:48;;;;;;;10.27;1.52;;;;;;;;;;5070244;28;20098;-67
2022/10/18 12:20:16;;;;;;;7.88;1.23;;;;;;;;;;5069934;28;20033;-68
2022/10/18 12:22:47;;;;;;;7.50;1.70;;;;;;;;;;5069302;28;20094;-65
2022/10/18 12:25:14;;;;;;;9.30;2.28;;;;;;;;;;5069424;28;20114;-65
2022/10/18 12:27:43;;;;;;;14.55;1.55;;;;;;;;;;5069171;28;20378;-65
2022/10/18 12:30:39;;;;;;;11.30;1.48;;;;;;;;;;5070047;28;20044;-65
2022/10/18 12:33:09;;;;;;;7.45;1.20;;;;;;;;;;5050441;28;20577;-65
2022/10/18 12:35:44;;;;;;;11.38;1.40;;;;;;;;;;5070546;28;20399;-67
2022/10/18 12:38:10;;;;;;;8.02;1.42;;;;;;;;;;5070250;28;20041;-66
2022/10/18 12:40:39;;;;;;;6.53;1.33;;;;;;;;;;5069293;28;20505;-67
2022/10/18 12:43:10;;;;;;;7.18;1.33;;;;;;;;;;5053860;28;20072;-68
2022/10/18 12:45:47;;;;;;;9.18;1.17;;;;;;;;;;5067157;28;20033;-66
2022/10/18 12:48:25;;;;;;;8.65;1.20;;;;;;;;;;5103164;28;20052;-69
2022/10/18 12:50:57;;;;;;;9.70;1.70;;;;;;;;;;5070117;28;20098;-66
2022/10/18 12:53:27;;;;;;;13.48;1.70;;;;;;;;;;5070482;28;20471;-66
2022/10/18 12:55:54;;;;;;;9.00;1.30;;;;;;;;;;5070635;28;20068;-68
2022/10/18 12:58:20;;;;;;;8.63;1.98;;;;;;;;;;5068529;28;20157;-68
2022/10/18 13:00:46;;;;;;;9.48;1.20;;;;;;;;;;5069982;28;20044;-69
2022/10/18 13:03:16;;;;;;;9.88;1.73;;;;;;;;;;5070969;28;20072;-67
2022/10/18 13:05:49;;;;;;;12.77;2.03;;;;;;;;;;5069794;28;20036;-69
2022/10/18 13:08:28;;;;;;;8.38;1.25;;;;;;;;;;5101677;28;20075;-65
2022/10/18 13:11:10;;;;;;;10.38;1.40;;;;;;;;;;5066587;28;20056;-68
2022/10/18 13:13:49;;;;;;;8.23;1.15;;;;;;;;;;5068249;28;20060;-68
2022/10/18 13:16:35;;;;;;;8.38;1.80;;;;;;;;;;5069906;28;20051;-69
2022/10/18 13:19:04;;;;;;;7.45;1.40;;;;;;;;;;5067728;28;20131;-67
2022/10/18 13:21:33;;;;;;;12.88;2.17;;;;;;;;;;5070003;28;20123;-66
2022/10/18 13:24:12;;;;;;;11.13;1.52;;;;;;;;;;5070263;28;20041;-67
2022/10/18 13:26:46;;;;;;;9.32;1.73;;;;;;;;;;5068116;28;20044;-66
2022/10/18 13:29:22;;;;;;;9.32;1.88;;;;;;;;;;5069829;28;20094;-66
2022/10/18 13:32:04;;;;;;;7.40;1.35;;;;;;;;;;5070161;28;20036;-66
2022/10/18 13:34:37;;;;;;;10.40;1.63;;;;;;;;;;5069548;28;20052;-65
2022/10/18 13:37:18;;;;;;;10.60;1.85;;;;;;;;;;5073716;28;20468;-67
2022/10/18 13:39:44;;;;;;;8.68;1.80;;;;;;;;;;5074329;28;20036;-67
2022/10/18 13:42:13;;;;;;;8.98;1.77;;;;;;;;;;5073563;28;20039;-67
2022/10/18 13:44:40;;;;;;;10.30;1.75;;;;;;;;;;5074305;28;20075;-67
2022/10/18 13:47:06;;;;;;;11.52;1.65;;;;;;;;;;5072644;28;20076;-72
2022/10/18 13:49:38;;;;;;;9.73;1.88;;;;;;;;;;5071875;28;20070;-66
2022/10/18 13:52:17;;;;;;;8.02;1.77;;;;;;;;;;5072610;28;20044;-67
2022/10/18 13:54:49;;;;;;;20.63;2.85;;;;;;;;;;5073848;28;20046;-67
2022/10/18 13:57:15;;;;;;;;;;;;;;;;;;5073639;28;20052;-67
2022/10/18 14:00:01;;;;;;;10.70;1.52;;;;;;;;;;5073938;28;19921;-67
2022/10/18 14:02:45;;;;;;;14.63;1.83;;;;;;;;;;5073757;28;20039;-68
2022/10/18 14:05:11;;;;;;;10.02;1.92;;;;;;;;;;5073297;28;20545;-67
2022/10/18 14:07:38;;;;;;;10.77;1.50;;;;;;;;;;5073656;28;20040;-68
2022/10/18 14:10:04;;;;;;;12.43;1.85;;;;;;;;;;5072238;28;20048;-68
2022/10/18 14:12:34;;;;;;;13.27;1.88;;;;;;;;;;5073163;28;20049;-68
2022/10/18 14:15:07;;;;;;;12.75;1.75;;;;;;;;;;5072206;28;20059;-68
2022/10/18 14:17:42;;;;;;;10.45;2.03;;;;;;;;;;5072037;28;20046;-68
2022/10/18 14:20:20;;;;;;;10.90;1.70;;;;;;;;;;5073289;28;20090;-68
2022/10/18 14:23:13;;;;;;;17.35;1.70;;;;;;;;;;5073606;28;20037;-67
2022/10/18 14:25:39;;;;;;;;;;;;;;;;;;5072020;28;20085;-67
2022/10/18 14:28:11;;;;;;;17.15;1.80;;;;;;;;;;5073420;28;19920;-67
2022/10/18 14:30:37;;;;;;;;;;;;;;;;;;5074018;28;20081;-67
2022/10/18 14:33:03;;;;;;;8.00;1.27;;;;;;;;;;5073060;28;20019;-67
2022/10/18 14:35:30;;;;;;;9.98;1.92;;;;;;;;;;5073556;28;20044;-68